createdAt,value
2023-01-04T00:01:05.921Z,98130.91
2023-01-04T00:06:26.682Z,98118.13
2023-01-04T00:11:47.651Z,98112.19
2023-01-04T00:17:08.251Z,98113.69
2023-01-04T00:22:29.062Z,98115.50
2023-01-04T00:27:51.139Z,98105.56
2023-01-04T00:33:11.991Z,98108.31
2023-01-04T00:38:33.764Z,98100.41
2023-01-04T00:43:54.356Z,98101.13
2023-01-04T00:49:15.366Z,98100.06
2023-01-04T00:54:36.272Z,98094.91
2023-01-04T00:59:57.003Z,98092.44
2023-01-04T01:05:17.704Z,98091.84
2023-01-04T01:10:38.415Z,98085.34
2023-01-04T01:16:07.544Z,98084.66
2023-01-04T01:21:29.253Z,98076.53
2023-01-04T01:26:50.224Z,98089.25
2023-01-04T01:32:11.020Z,98083.44
2023-01-04T01:37:31.700Z,98085.31
2023-01-04T01:42:52.347Z,98091.72
2023-01-04T01:48:22.424Z,98084.94
2023-01-04T01:53:44.550Z,98077.69
2023-01-04T01:59:07.065Z,98070.16
2023-01-04T02:04:27.849Z,98057.06
2023-01-04T02:09:49.582Z,98044.72
2023-01-04T02:15:11.010Z,98031.59
2023-01-04T02:20:32.312Z,98036.16
2023-01-04T02:26:26.845Z,98033.47
2023-01-04T02:31:57.381Z,98031.25
2023-01-04T02:37:29.614Z,98031.47
2023-01-04T02:43:22.191Z,98025.34
2023-01-04T02:49:01.446Z,98022.81
2023-01-04T02:54:27.556Z,98026.63
2023-01-04T02:59:51.261Z,98014.72
2023-01-04T03:06:00.261Z,98012.00
2023-01-04T03:11:40.061Z,98009.16
2023-01-04T03:17:07.090Z,97997.31
2023-01-04T03:23:11.845Z,97992.66
2023-01-04T03:28:55.158Z,98002.66
2023-01-04T03:34:42.436Z,97998.25
2023-01-04T03:40:31.240Z,97982.78
2023-01-04T03:46:20.924Z,97963.53
2023-01-04T03:51:43.994Z,97956.84
2023-01-04T03:57:06.853Z,97945.63
2023-01-04T04:02:30.546Z,97941.22
2023-01-04T04:08:09.976Z,97946.91
2023-01-04T04:13:30.988Z,97938.34
2023-01-04T04:18:51.628Z,97925.25
2023-01-04T04:24:21.580Z,97921.47
2023-01-04T04:29:42.355Z,97909.56
2023-01-04T04:35:03.229Z,97908.84
2023-01-04T04:40:42.667Z,97904.06
2023-01-04T04:46:03.834Z,97895.75
2023-01-04T04:51:25.012Z,97898.84
2023-01-04T04:56:46.590Z,97898.31
2023-01-04T05:02:07.620Z,97898.13
2023-01-04T05:07:28.790Z,97880.09
2023-01-04T05:13:01.669Z,97886.22
2023-01-04T05:18:23.230Z,97884.66
2023-01-04T05:23:44.158Z,97877.13
2023-01-04T05:29:04.919Z,97866.59
2023-01-04T05:34:25.493Z,97864.00
2023-01-04T05:39:46.141Z,97862.97
2023-01-04T05:45:07.345Z,97859.38
2023-01-04T05:50:28.460Z,97844.50
2023-01-04T05:55:58.017Z,97834.38
2023-01-04T06:01:18.741Z,97828.78
2023-01-04T06:06:39.480Z,97829.34
2023-01-04T06:12:00.123Z,97827.97
2023-01-04T06:17:20.942Z,97836.47
2023-01-04T06:22:41.820Z,97824.91
2023-01-04T06:28:02.702Z,97822.22
2023-01-04T06:33:23.283Z,97821.91
2023-01-04T06:38:44.039Z,97811.72
2023-01-04T06:44:05.157Z,97804.81
2023-01-04T06:49:25.901Z,97797.88
2023-01-04T06:54:46.795Z,97790.34
2023-01-04T07:00:09.123Z,97792.34
2023-01-04T07:05:30.137Z,97791.84
2023-01-04T07:10:51.013Z,97791.19
2023-01-04T07:16:11.872Z,97783.00
2023-01-04T07:21:32.462Z,97789.06
2023-01-04T07:26:53.837Z,97789.63
2023-01-04T07:32:14.497Z,97789.31
2023-01-04T07:37:35.243Z,97780.78
2023-01-04T07:42:58.283Z,97766.38
2023-01-04T07:48:19.009Z,97754.78
2023-01-04T07:53:39.748Z,97742.22
2023-01-04T07:59:00.291Z,97743.44
2023-01-04T08:04:27.095Z,97738.53
2023-01-04T08:09:50.327Z,97728.53
2023-01-04T08:15:11.066Z,97715.44
2023-01-04T08:20:31.874Z,97714.81
2023-01-04T08:25:52.507Z,97710.13
2023-01-04T08:31:16.532Z,97700.50
2023-01-04T08:36:49.945Z,97698.31
2023-01-04T08:42:21.922Z,97697.66
2023-01-04T08:47:48.931Z,97676.56
2023-01-04T08:53:09.727Z,97686.63
2023-01-04T08:58:32.211Z,97670.47
2023-01-04T09:03:55.689Z,97661.22
2023-01-04T09:09:16.425Z,97663.25
2023-01-04T09:14:37.682Z,97651.56
2023-01-04T09:19:58.232Z,97648.38
2023-01-04T09:25:18.934Z,97655.66
2023-01-04T09:30:39.586Z,97650.03
2023-01-04T09:36:05.553Z,97650.66
2023-01-04T09:41:34.728Z,97638.16
2023-01-04T09:47:03.170Z,97644.47
2023-01-04T09:52:48.481Z,97635.47
2023-01-04T09:58:39.671Z,97615.34
2023-01-04T10:04:12.866Z,97604.41
2023-01-04T10:09:34.047Z,97583.25
2023-01-04T10:15:22.749Z,97571.56
2023-01-04T10:26:45.772Z,97545.00
2023-01-04T10:32:20.471Z,97538.78
2023-01-04T10:37:41.643Z,97529.63
2023-01-04T10:43:17.651Z,97528.31
2023-01-04T10:49:10.671Z,97522.22
2023-01-04T10:54:40.826Z,97496.25
2023-01-04T11:00:03.776Z,97469.41
2023-01-04T11:05:41.749Z,97458.16
2023-01-04T11:11:15.346Z,97454.41
2023-01-04T11:16:38.235Z,97458.06
2023-01-04T11:22:37.692Z,97453.06
2023-01-04T11:28:23.995Z,97436.53
2023-01-04T11:33:53.927Z,97425.38
2023-01-04T11:39:22.403Z,97420.28
2023-01-04T11:44:43.134Z,97399.16
2023-01-04T11:50:03.838Z,97395.38
2023-01-04T11:55:27.520Z,97391.63
2023-01-04T12:00:56.065Z,97380.28
2023-01-04T12:06:20.605Z,97368.09
2023-01-04T12:11:45.353Z,97346.22
2023-01-04T12:17:06.165Z,97345.78
2023-01-04T12:22:33.537Z,97342.06
2023-01-04T12:27:56.985Z,97328.13
2023-01-04T12:33:38.333Z,97309.38
2023-01-04T12:39:24.906Z,97304.22
2023-01-04T12:44:51.850Z,97277.22
2023-01-04T12:50:23.243Z,97295.13
2023-01-04T12:55:45.681Z,97280.81
2023-01-04T13:01:06.637Z,97245.81
2023-01-04T13:06:29.797Z,97250.34
2023-01-04T13:12:15.726Z,97301.59
2023-01-04T13:17:40.386Z,97265.00
2023-01-04T13:23:01.198Z,97263.69
2023-01-04T13:28:23.725Z,97265.88
2023-01-04T13:33:46.723Z,97259.22
2023-01-04T13:39:08.381Z,97258.19
2023-01-04T13:45:19.084Z,97244.13
2023-01-04T13:50:47.431Z,97226.75
2023-01-04T13:56:20.518Z,97229.31
2023-01-04T14:01:46.862Z,97218.75
2023-01-04T14:07:07.707Z,97208.00
2023-01-04T14:12:29.222Z,97192.38
2023-01-04T14:17:51.527Z,97186.19
2023-01-04T14:23:27.460Z,97196.16
2023-01-04T14:28:50.162Z,97198.16
2023-01-04T14:34:14.647Z,97196.06
2023-01-04T14:39:35.562Z,97184.38
2023-01-04T14:44:56.560Z,97179.59
2023-01-04T14:50:20.420Z,97173.38
2023-01-04T14:55:41.066Z,97172.13
2023-01-04T15:01:01.889Z,97165.00
2023-01-04T15:06:22.772Z,97158.06
2023-01-04T15:11:43.420Z,97136.19
2023-01-04T15:17:04.123Z,97140.13
2023-01-04T15:22:24.728Z,97142.38
2023-01-04T15:27:45.496Z,97130.88
2023-01-04T15:33:06.514Z,97146.19
2023-01-04T15:38:27.635Z,97128.88
2023-01-04T15:43:48.128Z,97124.47
2023-01-04T15:49:15.086Z,97128.59
2023-01-04T15:54:38.212Z,97109.72
2023-01-04T15:59:58.871Z,97110.66
2023-01-04T16:05:21.024Z,97109.19
2023-01-04T16:10:41.888Z,97104.53
2023-01-04T16:16:02.904Z,97094.66
2023-01-04T16:21:27.362Z,97089.22
2023-01-04T16:26:48.045Z,97065.56
2023-01-04T16:32:08.833Z,97058.47
2023-01-04T16:37:30.619Z,97046.13
2023-01-04T16:42:51.433Z,97022.44
2023-01-04T16:48:18.327Z,97012.56
2023-01-04T16:53:39.754Z,97026.94
2023-01-04T16:59:02.204Z,97026.72
2023-01-04T17:04:24.575Z,97019.44
2023-01-04T17:09:45.181Z,97014.13
2023-01-04T17:20:54.054Z,97012.25
2023-01-04T17:26:30.060Z,96993.72
2023-01-04T17:31:51.181Z,96997.63
2023-01-04T17:37:12.297Z,96960.69
2023-01-04T17:42:33.619Z,96966.50
2023-01-04T17:47:54.619Z,96935.00
2023-01-04T17:53:15.435Z,96935.56
2023-01-04T17:58:36.875Z,96939.59
2023-01-04T18:03:59.005Z,96934.28
2023-01-04T18:09:22.405Z,96931.69
2023-01-04T18:14:45.542Z,96934.03
2023-01-04T18:20:07.222Z,96924.56
2023-01-04T18:25:28.146Z,96917.03
2023-01-04T18:30:49.922Z,96929.91
2023-01-04T18:36:12.131Z,96937.56
2023-01-04T18:41:34.003Z,96923.41
2023-01-04T18:46:54.960Z,96917.13
2023-01-04T18:52:16.509Z,96911.69
2023-01-04T18:57:37.858Z,96905.31
2023-01-04T19:02:58.974Z,96905.19
2023-01-04T19:08:20.157Z,96897.28
2023-01-04T19:13:41.198Z,96902.34
2023-01-04T19:19:03.632Z,96896.09
2023-01-04T19:24:24.555Z,96883.69
2023-01-04T19:29:46.172Z,96880.00
2023-01-04T19:35:07.674Z,96874.69
2023-01-04T19:40:29.458Z,96854.75
2023-01-04T19:45:50.448Z,96853.56
2023-01-04T19:51:15.362Z,96857.78
2023-01-04T19:56:36.381Z,96858.63
2023-01-04T20:01:57.145Z,96861.06
2023-01-04T20:07:18.333Z,96886.13
2023-01-04T20:12:39.130Z,96871.38
2023-01-04T20:17:59.838Z,96865.94
2023-01-04T20:23:24.005Z,96878.66
2023-01-04T20:28:46.318Z,96882.78
2023-01-04T20:34:07.279Z,96873.09
2023-01-04T20:39:28.003Z,96883.41
2023-01-04T20:44:48.636Z,96877.94
2023-01-04T20:50:13.003Z,96872.50
2023-01-04T20:55:40.818Z,96878.38
2023-01-04T21:01:08.664Z,96890.44
2023-01-04T21:06:30.679Z,96886.06
2023-01-04T21:11:51.281Z,96885.00
2023-01-04T21:17:14.300Z,96885.84
2023-01-04T21:22:35.027Z,96859.69
2023-01-04T21:27:55.824Z,96843.00
2023-01-04T21:33:16.744Z,96846.22
2023-01-04T21:38:37.696Z,96825.41
2023-01-04T21:43:58.481Z,96821.03
2023-01-04T21:49:19.449Z,96805.16
2023-01-04T21:54:39.997Z,96815.31
2023-01-04T22:00:00.757Z,96807.38
2023-01-04T22:05:21.360Z,96785.63
2023-01-04T22:10:42.239Z,96799.59
2023-01-04T22:16:07.942Z,96777.81
2023-01-04T22:21:28.790Z,96771.53
2023-01-04T22:26:50.721Z,96753.34
2023-01-04T22:32:11.516Z,96766.22
2023-01-04T22:37:32.210Z,96758.44
2023-01-04T22:42:52.921Z,96745.28
2023-01-04T22:48:13.930Z,96732.97
2023-01-04T22:53:35.338Z,96725.88
2023-01-04T22:58:57.172Z,96708.47
2023-01-04T23:04:18.335Z,96726.69
2023-01-04T23:09:38.941Z,96720.41
2023-01-04T23:15:00.305Z,96742.03
2023-01-04T23:20:21.281Z,96740.28
2023-01-04T23:25:41.863Z,96727.13
2023-01-04T23:31:08.464Z,96713.97
2023-01-04T23:36:32.686Z,96727.81
2023-01-04T23:41:53.551Z,96694.69
2023-01-04T23:47:14.299Z,96691.97
2023-01-04T23:52:34.994Z,96683.19
2023-01-04T23:57:55.927Z,96691.00
